DM4 weather

Public forecast

Using degrees Celsius for public forecast. Weather courtesy of forecast.io.

Closest aviation weather report (METAR) to Baie Verte Water Aerodrome

Closest report is Deer Lake Airport, 64.3 nm (119.1 km) SW. Retrieved 2020/08/13 16:00 UTC (60 minutes ago):

CYDF 131600Z 23012KT 15SM SCT040 SCT120 27/19 A2991 RMK CU3AC1 SLP131 DENSITY ALT 1600FT

Closest aviation forecast (TAF) to Baie Verte Water Aerodrome

Closest forecast is Deer Lake Airport, 64.3 nm (119.1 km) SW. Retrieved 2020/08/13 14:00 UTC (3 hours ago):

TAF CYDF 131338Z 1314/1324 22012KT P6SM SCT030 BKN090 TEMPO 1314/1318 P6SM -SHRA BKN030 BKN090 BECMG 1314/1316 25010G20KT FM131800 26010G20KT P6SM FEW060 RMK NXT FCST BY 132000Z